Time;durP1;ratioP1;P1;durP2;ratioP2;P2;SDS_P1;SDS_P2;PMS_P1;PMS_P2;Temp;Humidity;BMP_temperature;BMP_pressure;BME280_temperature;BME280_humidity;BME280_pressure;Samples;Min_cycle;Max_cycle;Signal;HPM_P1;HPM_P2
2021/08/26 00:06:57;;;;;;;;;14.75;14.75;;;;;17.55;59.37;100756.66;5017546;28;45215;-91
2021/08/26 00:09:23;;;;;;;;;18.00;14.00;;;;;17.52;59.26;100772.19;5016683;28;45247;-89
2021/08/26 00:11:49;;;;;;;;;18.75;15.75;;;;;17.23;59.18;100721.66;5016426;28;47834;-90
2021/08/26 00:14:16;;;;;;;;;16.50;15.50;;;;;17.15;59.39;100707.97;5016283;28;45971;-89
2021/08/26 00:16:42;;;;;;;;;16.00;14.75;;;;;17.12;59.30;100713.59;5016477;28;45236;-90
2021/08/26 00:19:09;;;;;;;;;17.50;15.25;;;;;17.13;59.72;100721.53;5016424;28;45188;-89
2021/08/26 00:21:35;;;;;;;;;16.25;14.50;;;;;17.26;59.81;100753.66;5016108;28;47196;-89
2021/08/26 00:24:01;;;;;;;;;16.50;16.50;;;;;17.10;59.52;100740.56;5016415;28;45135;-90
2021/08/26 00:26:26;;;;;;;;;18.75;16.75;;;;;16.94;60.21;100719.47;5016278;28;45133;-92
2021/08/26 00:28:51;;;;;;;;;15.25;14.00;;;;;16.91;60.14;100722.38;5016523;28;45231;-89
2021/08/26 00:31:17;;;;;;;;;15.00;14.25;;;;;17.16;60.02;100769.66;5015855;28;47322;-91
2021/08/26 00:33:42;;;;;;;;;16.75;13.50;;;;;16.96;60.08;100741.69;5015785;28;45703;-89
2021/08/26 00:36:08;;;;;;;;;15.50;13.75;;;;;17.06;60.58;100766.84;5016187;28;45335;-91
2021/08/26 00:38:34;;;;;;;;;14.25;13.75;;;;;16.98;60.52;100749.63;5016281;28;45379;-91
2021/08/26 00:40:59;;;;;;;;;14.25;14.25;;;;;16.76;60.63;100713.69;5017162;28;46177;-90
2021/08/26 00:43:29;;;;;;;;;14.75;14.00;;;;;17.05;60.88;100766.97;5016068;28;45509;-89
2021/08/26 00:45:56;;;;;;;;;20.75;13.00;;;;;16.96;60.52;100757.81;5032747;28;45242;-90
2021/08/26 00:48:23;;;;;;;;;17.50;16.00;;;;;16.70;61.04;100714.16;5016076;28;45355;-92
2021/08/26 00:50:53;;;;;;;;;19.25;15.50;;;;;16.67;60.96;100707.19;5015346;28;47063;-91
2021/08/26 00:53:23;;;;;;;;;14.00;12.50;;;;;16.80;61.33;100731.28;5016168;28;45221;-91
2021/08/26 00:55:49;;;;;;;;;16.75;14.25;;;;;16.86;61.33;100740.66;5015552;28;45656;-91
2021/08/26 00:58:15;;;;;;;;;15.25;13.75;;;;;16.63;61.52;100703.06;5015682;28;45256;-89
2021/08/26 01:00:51;;;;;;;;;15.25;13.25;;;;;17.00;61.59;100761.97;5015517;28;47025;-91
2021/08/26 01:03:25;;;;;;;;;19.75;14.00;;;;;16.76;61.39;100719.06;5015728;28;45684;-91
2021/08/26 01:05:57;;;;;;;;;17.75;13.00;;;;;16.87;61.31;100737.88;5015824;28;45286;-89
2021/08/26 01:09:03;;;;;;;;;14.50;14.50;;;;;16.68;61.12;100700.03;5019257;28;45235;-90
2021/08/26 01:11:38;;;;;;;;;17.25;13.75;;;;;16.60;61.58;100679.13;5015562;28;46871;-90
2021/08/26 01:14:09;;;;;;;;;22.00;17.25;;;;;16.81;62.02;100721.38;5019333;28;45327;-92
2021/08/26 01:16:41;;;;;;;;;15.75;14.50;;;;;16.85;62.32;100715.63;5019417;28;45137;-90
2021/08/26 01:19:07;;;;;;;;;17.25;14.75;;;;;16.72;61.97;100694.28;5019079;28;45373;-90
2021/08/26 01:21:35;;;;;;;;;15.50;13.75;;;;;16.76;62.07;100707.44;5019025;28;47135;-90
2021/08/26 01:24:05;;;;;;;;;13.25;13.00;;;;;16.79;62.08;100701.84;5019340;28;45435;-91
2021/08/26 01:26:35;;;;;;;;;14.50;13.50;;;;;16.75;61.94;100693.19;5018682;28;45286;-89
2021/08/26 01:29:05;;;;;;;;;16.75;13.25;;;;;17.06;62.13;100739.13;5018964;28;45152;-89
2021/08/26 01:31:31;;;;;;;;;11.50;10.50;;;;;16.93;61.76;100709.72;5019064;28;47334;-90
2021/08/26 01:33:57;;;;;;;;;12.75;11.25;;;;;16.90;61.99;100702.75;5018714;28;46191;-90
2021/08/26 01:36:27;;;;;;;;;12.25;11.25;;;;;17.05;61.86;100719.44;5018906;28;45248;-89
2021/08/26 01:38:53;;;;;;;;;14.00;12.25;;;;;17.18;61.67;100730.06;5018725;28;45177;-90
2021/08/26 01:41:20;;;;;;;;;15.00;13.25;;;;;17.10;61.78;100710.19;5018773;28;48318;-91
2021/08/26 01:43:51;;;;;;;;;11.00;11.00;;;;;17.19;61.64;100712.97;5018928;28;45269;-91
2021/08/26 01:46:17;;;;;;;;;13.00;10.00;;;;;17.03;61.33;100673.06;5018472;28;45180;-91
2021/08/26 01:48:47;;;;;;;;;15.00;11.75;;;;;17.29;61.49;100713.09;5018595;28;45478;-91
2021/08/26 01:51:12;;;;;;;;;11.25;10.25;;;;;17.28;61.34;100706.00;5018453;28;48151;-90
2021/08/26 01:53:38;;;;;;;;;11.50;11.50;;;;;17.18;61.58;100688.94;5018412;28;45197;-90
2021/08/26 01:56:05;;;;;;;;;10.25;10.25;;;;;17.27;61.25;100709.66;5018613;28;45199;-92
2021/08/26 01:58:33;;;;;;;;;12.25;11.25;;;;;17.02;61.41;100667.81;5018862;28;45066;-89
2021/08/26 02:00:59;;;;;;;;;11.75;9.50;;;;;17.01;61.29;100669.63;5018347;28;47443;-90
2021/08/26 02:03:25;;;;;;;;;10.75;10.75;;;;;17.03;61.51;100674.88;5018544;28;45290;-91
2021/08/26 02:05:50;;;;;;;;;7.25;6.50;;;;;17.14;61.54;100698.22;5018272;28;45329;-90
2021/08/26 02:08:15;;;;;;;;;10.75;8.75;;;;;17.06;61.66;100691.63;5018630;28;45347;-90
2021/08/26 02:10:41;;;;;;;;;8.00;7.00;;;;;17.17;61.42;100711.38;5018188;28;47210;-89
2021/08/26 02:13:06;;;;;;;;;12.00;8.00;;;;;16.96;61.59;100677.22;5018425;28;45247;-89
2021/08/26 02:15:31;;;;;;;;;7.50;7.50;;;;;17.04;61.63;100693.56;5018478;28;45235;-90
2021/08/26 02:17:57;;;;;;;;;8.25;8.00;;;;;16.96;61.59;100682.59;5018268;28;45401;-91
2021/08/26 02:20:23;;;;;;;;;7.00;7.00;;;;;17.03;61.80;100696.38;5017585;28;47145;-90
2021/08/26 02:22:48;;;;;;;;;8.00;7.00;;;;;17.24;61.64;100732.28;5017977;28;45241;-90
2021/08/26 02:25:14;;;;;;;;;7.50;7.50;;;;;16.91;61.57;100666.00;5018456;28;45262;-91
2021/08/26 02:27:39;;;;;;;;;8.00;6.25;;;;;17.05;61.57;100691.75;5019757;28;45205;-90
2021/08/26 02:30:07;;;;;;;;;6.25;6.00;;;;;17.02;61.14;100692.84;5018062;28;45354;-91
2021/08/26 02:32:33;;;;;;;;;6.00;4.25;;;;;16.93;61.64;100671.25;5018523;28;46015;-89
2021/08/26 02:34:59;;;;;;;;;6.25;5.50;;;;;16.94;61.83;100676.47;5018450;28;45315;-89
2021/08/26 02:37:25;;;;;;;;;7.75;4.00;;;;;17.05;61.64;100703.34;5018201;28;45271;-89
2021/08/26 02:39:50;;;;;;;;;8.00;6.00;;;;;16.95;61.46;100690.78;5017725;28;48318;-91
2021/08/26 02:42:16;;;;;;;;;4.50;4.25;;;;;17.03;61.82;100708.00;5018103;28;45580;-90
2021/08/26 02:44:41;;;;;;;;;4.00;4.00;;;;;17.16;61.76;100728.47;5017978;28;45465;-89
2021/08/26 02:47:06;;;;;;;;;6.25;4.50;;;;;16.72;61.76;100653.16;5017690;28;45398;-90
2021/08/26 02:49:37;;;;;;;;;3.75;3.75;;;;;17.01;61.67;100711.78;5017767;28;48018;-90
2021/08/26 02:52:03;;;;;;;;;3.25;3.25;;;;;16.81;61.31;100676.59;5001531;28;45797;-90
2021/08/26 02:54:29;;;;;;;;;4.25;3.25;;;;;16.77;61.58;100667.06;5018073;28;45296;-90
2021/08/26 02:56:54;;;;;;;;;5.25;3.00;;;;;16.97;61.58;100692.34;5017578;28;45620;-92
2021/08/26 02:59:20;;;;;;;;;6.00;3.00;;;;;16.85;61.66;100670.00;5017851;28;47677;-92
2021/08/26 03:01:45;;;;;;;;;4.25;4.25;;;;;16.86;61.58;100677.06;5017533;28;45798;-93
2021/08/26 03:04:10;;;;;;;;;3.00;2.75;;;;;16.68;61.28;100649.00;5017532;28;45193;-90
2021/08/26 03:06:36;;;;;;;;;3.00;3.00;;;;;16.66;61.12;100642.91;5017869;28;45423;-90
2021/08/26 03:09:01;;;;;;;;;4.00;3.00;;;;;16.85;61.92;100680.72;5017599;28;47941;-89
2021/08/26 03:11:27;;;;;;;;;3.00;3.00;;;;;17.05;61.32;100713.25;5017969;28;45265;-89
2021/08/26 03:13:52;;;;;;;;;3.75;2.50;;;;;16.71;61.47;100664.88;5024529;28;44715;-90
2021/08/26 03:16:17;;;;;;;;;4.00;2.50;;;;;16.85;61.36;100688.78;5025322;28;45457;-90
2021/08/26 03:18:43;;;;;;;;;2.00;2.00;;;;;16.89;61.35;100694.81;5019953;28;46995;-90
2021/08/26 03:21:08;;;;;;;;;3.00;3.00;;;;;16.60;61.25;100654.97;5017721;28;45136;-90
2021/08/26 03:23:34;;;;;;;;;2.50;2.25;;;;;16.84;61.66;100696.97;5017311;28;45127;-90
2021/08/26 03:25:59;;;;;;;;;4.00;3.00;;;;;16.79;61.61;100691.97;5017656;28;45327;-92
2021/08/26 03:28:24;;;;;;;;;6.75;3.50;;;;;16.54;61.98;100644.72;5017102;28;48577;-91
2021/08/26 03:30:50;;;;;;;;;3.50;2.00;;;;;16.75;61.41;100682.44;5016183;28;45128;-91
2021/08/26 03:33:15;;;;;;;;;2.25;2.25;;;;;16.43;61.77;100626.78;5017291;28;45292;-90
2021/08/26 03:35:41;;;;;;;;;2.75;2.75;;;;;16.38;61.54;100627.16;5017140;28;45366;-92
2021/08/26 03:38:06;;;;;;;;;5.00;2.00;;;;;16.48;61.29;100658.66;5016629;28;48108;-90
2021/08/26 03:40:32;;;;;;;;;4.00;3.25;;;;;16.43;61.74;100650.94;5017027;28;45273;-90
2021/08/26 03:42:58;;;;;;;;;3.00;2.00;;;;;16.24;61.87;100629.22;5017082;28;45208;-91
2021/08/26 03:45:23;;;;;;;;;4.50;3.00;;;;;16.58;62.03;100699.03;5017068;28;45449;-90
2021/08/26 03:47:49;;;;;;;;;3.00;3.00;;;;;16.28;62.15;100654.84;5016408;28;47122;-89
2021/08/26 03:50:14;;;;;;;;;3.00;2.00;;;;;16.26;61.85;100660.31;5016845;28;45244;-90
2021/08/26 03:52:40;;;;;;;;;4.50;3.00;;;;;16.30;62.05;100671.66;5016634;28;45250;-90
2021/08/26 03:55:06;;;;;;;;;2.00;2.00;;;;;16.36;62.09;100698.00;5016641;28;45165;-90
2021/08/26 03:57:32;;;;;;;;;3.25;3.00;;;;;16.29;62.08;100694.09;5016749;28;47096;-90
2021/08/26 03:59:57;;;;;;;;;3.25;3.00;;;;;15.91;62.59;100653.16;5016697;28;45333;-90
2021/08/26 04:02:23;;;;;;;;;2.75;2.75;;;;;16.05;62.65;100677.09;5016630;28;45337;-89
2021/08/26 04:04:49;;;;;;;;;3.50;3.50;;;;;16.00;62.84;100679.28;5016741;28;45141;-90
2021/08/26 04:07:15;;;;;;;;;3.00;2.75;;;;;15.99;62.72;100690.09;5016607;28;47194;-90
2021/08/26 04:09:41;;;;;;;;;4.00;2.25;;;;;15.84;63.25;100676.88;5015676;28;45311;-91
2021/08/26 04:12:11;;;;;;;;;3.25;2.50;;;;;15.67;63.15;100653.16;5016627;28;45209;-93
2021/08/26 04:14:36;;;;;;;;;2.00;2.00;;;;;15.81;63.05;100677.13;5016555;28;45442;-90
2021/08/26 04:17:02;;;;;;;;;2.25;1.00;;;;;15.82;63.12;100686.88;5032832;28;47423;-91
2021/08/26 04:19:29;;;;;;;;;1.00;1.00;;;;;15.57;63.37;100653.00;5016677;28;45267;-90
2021/08/26 04:21:54;;;;;;;;;4.75;2.25;;;;;15.76;63.54;100687.31;5016673;28;45188;-89
2021/08/26 04:24:20;;;;;;;;;3.00;3.00;;;;;15.91;63.61;100713.97;5017003;28;45280;-92
2021/08/26 04:26:49;;;;;;;;;4.00;2.75;;;;;15.66;63.29;100678.25;5016065;28;47606;-89
2021/08/26 04:29:14;;;;;;;;;2.25;2.25;;;;;15.54;63.30;100658.59;5016079;28;45565;-90
2021/08/26 04:31:39;;;;;;;;;3.25;3.00;;;;;15.64;63.79;100672.16;5016430;28;45510;-90
2021/08/26 04:34:08;;;;;;;;;5.50;3.50;;;;;15.75;63.79;100687.41;5016312;28;45592;-90
2021/08/26 04:36:33;;;;;;;;;2.25;2.25;;;;;15.76;63.73;100686.44;5016023;28;47914;-89
2021/08/26 04:38:59;;;;;;;;;3.00;1.50;;;;;15.87;63.56;100699.94;5016042;28;45209;-92
2021/08/26 04:41:25;;;;;;;;;2.50;2.50;;;;;15.61;63.49;100667.88;5017022;28;45141;-90
2021/08/26 04:43:51;;;;;;;;;2.75;2.75;;;;;15.64;63.84;100664.13;5015925;28;45275;-91
2021/08/26 04:46:17;;;;;;;;;3.50;1.75;;;;;15.67;63.30;100659.38;5016383;28;47163;-93
2021/08/26 04:48:42;;;;;;;;;3.00;3.00;;;;;15.58;63.53;100659.22;5016152;28;45613;-90
2021/08/26 04:51:07;;;;;;;;;2.75;2.75;;;;;15.68;63.82;100684.34;5016030;28;45121;-91
2021/08/26 04:53:33;;;;;;;;;1.75;1.75;;;;;15.61;63.54;100680.44;5000020;28;45366;-91
2021/08/26 04:55:58;;;;;;;;;2.75;1.75;;;;;15.61;64.02;100680.44;5014839;28;48117;-82
2021/08/26 04:58:24;;;;;;;;;1.75;1.75;;;;;15.71;64.07;100701.06;5015994;28;45168;-83
2021/08/26 05:00:50;;;;;;;;;4.50;1.75;;;;;15.80;64.08;100717.47;5016151;28;45400;-82
2021/08/26 05:03:15;;;;;;;;;4.00;2.00;;;;;15.72;64.10;100693.88;5016088;28;45231;-83
2021/08/26 05:05:40;;;;;;;;;3.00;2.75;;;;;15.80;64.42;100702.22;5015765;28;45867;-83
2021/08/26 05:08:06;;;;;;;;;3.00;1.75;;;;;15.74;64.22;100683.03;5016070;28;45267;-84
2021/08/26 05:10:31;;;;;;;;;4.00;2.75;;;;;15.83;64.56;100690.41;5015758;28;45544;-86
2021/08/26 05:12:57;;;;;;;;;1.50;1.50;;;;;15.93;64.04;100707.50;5014894;28;45243;-83
2021/08/26 05:15:22;;;;;;;;;1.50;1.25;;;;;15.91;63.83;100697.91;5015965;28;46414;-82
2021/08/26 05:17:48;;;;;;;;;2.00;2.00;;;;;15.88;63.99;100694.47;4997952;28;45823;-83
2021/08/26 05:20:13;;;;;;;;;2.25;2.25;;;;;15.97;64.00;100706.31;5015778;28;45257;-83
2021/08/26 05:22:39;;;;;;;;;2.50;2.50;;;;;15.91;63.90;100693.38;5016327;28;45220;-81
2021/08/26 05:25:04;;;;;;;;;2.50;1.50;;;;;15.95;64.01;100700.22;5015887;28;46214;-83
2021/08/26 05:27:29;;;;;;;;;2.25;1.25;;;;;16.05;63.91;100721.84;5015752;28;45286;-81
2021/08/26 05:29:55;;;;;;;;;2.00;2.00;;;;;15.97;64.06;100703.63;5014267;28;45348;-82
2021/08/26 05:32:20;;;;;;;;;2.50;1.25;;;;;16.06;63.85;100718.16;5016055;28;45187;-82
2021/08/26 05:34:46;;;;;;;;;1.25;1.25;;;;;16.03;63.74;100695.13;5015185;28;46497;-81
2021/08/26 05:37:11;;;;;;;;;2.25;2.25;;;;;16.13;64.02;100713.19;5014358;28;45133;-80
2021/08/26 05:39:37;;;;;;;;;1.75;1.75;;;;;16.06;63.57;100699.38;5015350;28;45239;-81
2021/08/26 05:42:02;;;;;;;;;2.75;2.75;;;;;16.10;63.81;100694.66;5014231;28;45161;-81
2021/08/26 05:44:28;;;;;;;;;2.25;2.25;;;;;16.18;63.85;100702.97;5014985;28;45459;-80
2021/08/26 05:46:53;;;;;;;;;3.25;1.75;;;;;16.17;63.89;100709.31;5015701;28;45345;-84
2021/08/26 05:49:19;;;;;;;;;3.00;2.50;;;;;16.05;63.92;100687.81;5015657;28;45156;-84
2021/08/26 05:51:44;;;;;;;;;2.75;2.00;;;;;16.14;63.79;100702.34;5014345;28;45474;-83
2021/08/26 05:54:09;;;;;;;;;2.50;2.50;;;;;16.07;63.87;100670.75;5016482;28;47469;-83
2021/08/26 05:56:35;;;;;;;;;2.00;2.00;;;;;16.25;63.96;100698.84;5017697;28;45266;-83
2021/08/26 05:59:00;;;;;;;;;2.00;2.00;;;;;16.27;63.97;100706.78;5017527;28;45299;-85
2021/08/26 06:01:27;;;;;;;;;1.00;1.00;;;;;16.29;63.90;100697.66;5019381;28;45159;-84
2021/08/26 06:03:53;;;;;;;;;2.00;2.00;;;;;16.32;63.89;100702.78;5017310;28;47551;-83
2021/08/26 06:06:18;;;;;;;;;2.25;2.25;;;;;16.31;64.00;100690.31;5017989;28;45188;-84
2021/08/26 06:08:44;;;;;;;;;1.50;1.50;;;;;16.38;63.94;100698.75;5018430;28;45318;-83
2021/08/26 06:11:09;;;;;;;;;5.67;2.00;;;;;16.44;63.77;100703.63;5018999;28;45151;-84
2021/08/26 06:13:34;;;;;;;;;2.00;2.00;;;;;16.41;63.86;100697.66;5018847;28;45235;-83
2021/08/26 06:16:00;;;;;;;;;4.00;3.00;;;;;16.49;63.63;100711.31;5018585;28;45157;-84
2021/08/26 06:18:25;;;;;;;;;3.00;2.00;;;;;16.55;64.04;100713.56;5018892;28;45204;-82
2021/08/26 06:20:50;;;;;;;;;2.75;2.00;;;;;16.62;64.05;100703.19;5018699;28;45230;-83
2021/08/26 06:23:16;;;;;;;;;2.25;2.25;;;;;16.69;63.68;100707.09;5018170;28;45715;-84
2021/08/26 06:25:41;;;;;;;;;2.25;2.25;;;;;16.79;63.34;100700.03;5016903;28;45197;-83
2021/08/26 06:28:07;;;;;;;;;2.00;2.00;;;;;16.89;63.05;100705.56;5018493;28;45321;-84
2021/08/26 06:30:32;;;;;;;;;3.00;3.00;;;;;16.95;62.92;100702.38;5018310;28;45248;-82
2021/08/26 06:32:57;;;;;;;;;4.75;2.25;;;;;17.07;63.30;100708.59;5018300;28;45852;-82
2021/08/26 06:35:23;;;;;;;;;4.50;3.00;;;;;17.04;62.95;100693.56;5019016;28;45164;-92
2021/08/26 06:37:48;;;;;;;;;3.00;2.00;;;;;17.11;62.86;100702.00;5019441;28;45339;-89
2021/08/26 06:40:14;;;;;;;;;5.00;3.00;;;;;17.21;62.94;100713.69;5018544;28;45430;-90
2021/08/26 06:42:39;;;;;;;;;4.00;2.50;;;;;17.26;63.02;100710.66;5017553;28;47127;-90
2021/08/26 06:45:06;;;;;;;;;2.25;2.25;;;;;17.28;63.07;100708.69;5019007;28;45205;-90
2021/08/26 06:47:31;;;;;;;;;3.00;3.00;;;;;17.34;63.05;100704.66;5019457;28;45343;-90
2021/08/26 06:49:56;;;;;;;;;3.25;2.25;;;;;17.41;63.25;100711.22;5018927;28;45231;-89
2021/08/26 06:52:22;;;;;;;;;5.75;2.50;;;;;17.44;62.94;100713.66;5018155;28;46874;-90
2021/08/26 06:54:47;;;;;;;;;3.75;3.00;;;;;17.54;63.29;100713.75;5018231;28;45321;-90
2021/08/26 06:57:13;;;;;;;;;2.75;2.25;;;;;17.62;62.93;100713.16;5019086;28;45156;-90
2021/08/26 06:59:38;;;;;;;;;4.50;3.25;;;;;17.63;62.81;100702.25;5021233;28;45134;-89
2021/08/26 07:02:04;;;;;;;;;5.00;5.00;;;;;17.68;62.48;100715.31;5020711;28;45539;-89
2021/08/26 07:04:29;;;;;;;;;5.50;4.00;;;;;17.64;62.42;100705.78;5019127;28;45265;-91
2021/08/26 07:06:55;;;;;;;;;5.00;4.50;;;;;17.63;62.61;100702.25;5019173;28;45243;-90
2021/08/26 07:09:22;;;;;;;;;4.00;4.00;;;;;17.60;62.53;100695.31;5018054;28;45185;-90
2021/08/26 07:11:48;;;;;;;;;4.50;4.00;;;;;17.61;62.73;100688.06;5018953;28;45553;-88
2021/08/26 07:14:13;;;;;;;;;6.00;5.00;;;;;17.80;62.50;100702.69;5018995;28;45263;-89
2021/08/26 07:16:39;;;;;;;;;6.75;4.50;;;;;17.72;62.81;100681.81;5019249;28;45283;-90
2021/08/26 07:19:04;;;;;;;;;4.00;4.00;;;;;17.86;62.44;100700.34;5018040;28;45367;-89
2021/08/26 07:21:30;;;;;;;;;7.75;4.00;;;;;17.81;62.55;100689.09;5019278;28;46205;-89
2021/08/26 07:23:55;;;;;;;;;5.25;4.25;;;;;17.77;62.92;100690.34;5018877;28;45238;-90
2021/08/26 07:26:20;;;;;;;;;5.00;5.00;;;;;17.88;62.87;100702.91;5019355;28;45258;-90
2021/08/26 07:28:46;;;;;;;;;6.50;4.25;;;;;17.90;62.49;100692.84;5019054;28;45262;-91
2021/08/26 07:31:12;;;;;;;;;5.00;5.00;;;;;17.92;62.47;100699.84;5019137;28;45503;-90
2021/08/26 07:33:38;;;;;;;;;6.25;5.75;;;;;17.99;62.49;100705.56;5018900;28;45247;-90
2021/08/26 07:36:04;;;;;;;;;6.75;4.50;;;;;17.99;62.55;100696.66;5019273;28;45191;-90
2021/08/26 07:38:30;;;;;;;;;10.00;6.75;;;;;18.04;62.51;100705.16;5019043;28;45211;-89
2021/08/26 07:40:55;;;;;;;;;4.25;3.75;;;;;18.13;62.29;100709.78;5016847;28;48089;-89
2021/08/26 07:43:24;;;;;;;;;6.50;5.25;;;;;18.05;62.42;100686.22;5017873;28;45175;-89
2021/08/26 07:45:50;;;;;;;;;5.75;5.75;;;;;18.10;62.33;100693.91;5018084;28;45222;-91
2021/08/26 07:48:17;;;;;;;;;7.25;6.50;;;;;18.23;62.65;100708.03;5017729;28;45226;-92
2021/08/26 07:50:43;;;;;;;;;6.25;5.00;;;;;18.23;62.49;100705.31;5016165;28;47996;-90
2021/08/26 07:53:08;;;;;;;;;4.00;4.00;;;;;18.34;62.17;100707.13;5018177;28;45306;-92
2021/08/26 07:55:33;;;;;;;;;6.00;5.00;;;;;18.37;62.21;100714.03;5018150;28;45148;-91
2021/08/26 07:57:59;;;;;;;;;8.25;5.00;;;;;18.41;62.38;100710.97;5019549;28;45322;-92
2021/08/26 08:00:24;;;;;;;;;9.25;4.25;;;;;18.45;62.00;100704.34;5018653;28;46083;-90
2021/08/26 08:02:50;;;;;;;;;7.00;7.00;;;;;18.55;61.75;100700.84;5018821;28;45290;-92
2021/08/26 08:05:15;;;;;;;;;5.50;3.75;;;;;18.69;61.99;100707.72;5017946;28;45221;-91
2021/08/26 08:07:45;;;;;;;;;4.75;4.00;;;;;18.86;61.83;100707.09;5018031;28;45151;-91
2021/08/26 08:10:10;;;;;;;;;2.75;2.75;;;;;18.90;61.61;100683.47;5017620;28;47073;-91
2021/08/26 08:12:36;;;;;;;;;5.00;4.75;;;;;19.08;60.81;100694.44;5017714;28;45174;-91
2021/08/26 08:15:01;;;;;;;;;5.00;5.00;;;;;19.25;60.82;100709.09;5017463;28;45204;-90
2021/08/26 08:17:26;;;;;;;;;5.75;4.50;;;;;19.33;60.96;100711.13;5017602;28;45161;-90
2021/08/26 08:19:52;;;;;;;;;5.75;3.00;;;;;19.44;60.80;100703.78;5017275;28;46433;-92
2021/08/26 08:22:17;;;;;;;;;3.25;3.00;;;;;19.55;60.82;100701.94;5017807;28;45199;-90
2021/08/26 08:24:42;;;;;;;;;3.50;3.50;;;;;19.64;60.57;100699.25;5017624;28;45233;-90
2021/08/26 08:27:08;;;;;;;;;4.00;3.25;;;;;19.69;60.16;100700.69;5017577;28;45176;-92
2021/08/26 08:29:34;;;;;;;;;4.75;4.00;;;;;19.73;59.81;100697.56;5015507;28;47493;-91
2021/08/26 08:31:59;;;;;;;;;4.00;3.00;;;;;19.79;59.72;100699.72;5017536;28;45152;-92
2021/08/26 08:34:24;;;;;;;;;3.75;3.75;;;;;19.86;60.22;100699.16;5017119;28;45223;-92
2021/08/26 08:36:50;;;;;;;;;5.75;3.75;;;;;19.87;60.04;100698.19;5017162;28;45224;-91
2021/08/26 08:39:15;;;;;;;;;2.25;2.25;;;;;19.89;59.48;100702.41;5017472;28;45161;-90
2021/08/26 08:41:44;;;;;;;;;3.25;3.25;;;;;19.88;59.76;100703.44;5017831;28;45200;-91
2021/08/26 08:44:09;;;;;;;;;3.00;3.00;;;;;19.80;59.75;100698.72;5017369;28;45256;-91
2021/08/26 08:46:34;;;;;;;;;4.25;3.75;;;;;19.85;60.04;100706.38;5017157;28;45325;-91
2021/08/26 08:49:02;;;;;;;;;6.00;4.00;;;;;19.87;59.65;100699.03;5016590;28;46066;-90
2021/08/26 08:51:29;;;;;;;;;4.00;4.00;;;;;19.87;59.80;100706.28;5018075;28;45243;-88
2021/08/26 08:53:54;;;;;;;;;6.75;5.50;;;;;19.88;60.14;100700.72;5018899;28;45328;-90
2021/08/26 08:56:22;;;;;;;;;4.25;3.00;;;;;19.91;59.64;100707.66;5005042;28;45303;-91
2021/08/26 08:58:47;;;;;;;;;8.00;5.00;;;;;19.93;59.77;100701.13;5003551;28;45362;-89
2021/08/26 09:01:14;;;;;;;;;4.25;4.25;;;;;19.97;59.67;100701.72;5016465;28;45242;-91
2021/08/26 09:03:39;;;;;;;;;5.00;3.50;;;;;19.95;60.02;100701.00;5007951;28;45191;-91
2021/08/26 09:06:08;;;;;;;;;3.00;3.00;;;;;19.95;59.76;100703.69;5001169;28;45224;-91
2021/08/26 09:08:33;;;;;;;;;5.75;5.25;;;;;20.00;60.17;100704.13;4998982;28;45199;-91
2021/08/26 09:11:28;;;;;;;;;3.75;3.25;;;;;20.02;59.67;100694.03;5006788;28;45349;-88
2021/08/26 09:13:54;;;;;;;;;3.50;3.50;;;;;20.01;60.00;100686.94;4994872;28;45218;-90
2021/08/26 09:16:35;;;;;;;;;5.50;3.25;;;;;20.07;59.58;100702.56;5000803;28;45297;-90
2021/08/26 09:19:19;;;;;;;;;5.25;3.25;;;;;20.11;60.01;100703.09;5013974;28;45372;-93
2021/08/26 09:21:45;;;;;;;;;3.25;3.25;;;;;20.14;59.59;100697.44;5000923;28;45539;-90
2021/08/26 09:24:10;;;;;;;;;8.25;5.25;;;;;20.18;60.14;100701.56;4997872;28;45282;-90
2021/08/26 09:26:36;;;;;;;;;3.75;3.00;;;;;20.24;59.67;100710.94;5006074;28;45529;-90
2021/08/26 09:29:04;;;;;;;;;6.00;4.75;;;;;20.28;60.27;100707.81;5019382;28;45439;-91
2021/08/26 09:31:32;;;;;;;;;4.00;4.00;;;;;20.29;60.37;100709.47;5012311;28;45610;-91
2021/08/26 09:34:06;;;;;;;;;3.50;2.75;;;;;20.31;60.71;100699.41;5003276;28;45266;-92
2021/08/26 09:36:34;;;;;;;;;6.50;5.25;;;;;20.34;60.47;100700.97;5013487;28;45148;-90
2021/08/26 09:39:00;;;;;;;;;3.00;3.00;;;;;20.40;60.03;100696.84;5019625;28;45249;-90
2021/08/26 09:41:38;;;;;;;;;2.25;2.25;;;;;20.45;60.64;100702.63;5012603;28;45190;-91
2021/08/26 09:44:04;;;;;;;;;2.00;2.00;;;;;20.49;61.29;100704.91;5033565;28;45231;-90
2021/08/26 09:46:32;;;;;;;;;4.00;3.00;;;;;20.53;61.24;100708.16;5016773;28;45183;-91
2021/08/26 09:49:02;;;;;;;;;2.50;2.00;;;;;20.48;62.25;100702.38;5016895;28;45123;-92
2021/08/26 09:51:27;;;;;;;;;3.00;3.00;;;;;20.43;62.63;100701.94;5019011;28;45249;-90
2021/08/26 09:53:52;;;;;;;;;2.25;2.00;;;;;20.34;63.41;100692.88;5021704;28;45363;-91
2021/08/26 09:56:18;;;;;;;;;3.00;3.00;;;;;20.32;63.14;100693.00;5016266;28;45557;-90
2021/08/26 09:58:43;;;;;;;;;1.75;1.75;;;;;20.32;62.89;100694.84;5006298;28;45377;-92
2021/08/26 10:01:18;;;;;;;;;1.75;1.75;;;;;20.29;62.78;100692.44;5001545;28;45584;-90
2021/08/26 10:03:44;;;;;;;;;3.00;2.50;;;;;20.24;63.18;100682.09;5001847;28;45251;-90
2021/08/26 10:06:11;;;;;;;;;2.00;2.00;;;;;20.31;63.16;100691.31;5004459;28;45156;-88
2021/08/26 10:08:39;;;;;;;;;2.00;1.00;;;;;20.33;62.94;100693.84;5006909;28;45848;-91
2021/08/26 10:11:07;;;;;;;;;2.75;2.25;;;;;20.38;63.57;100696.13;5019488;28;45628;-90
2021/08/26 10:13:34;;;;;;;;;2.50;2.50;;;;;20.39;64.39;100704.06;5009859;28;45290;-91
2021/08/26 10:16:00;;;;;;;;;2.00;2.00;;;;;20.35;64.38;100686.44;5018760;28;45199;-90
2021/08/26 10:18:27;;;;;;;;;3.25;2.00;;;;;20.37;64.88;100697.13;5015523;28;45317;-90
2021/08/26 10:20:53;;;;;;;;;1.25;1.25;;;;;20.39;64.77;100692.44;5020689;28;45548;-90
2021/08/26 10:23:19;;;;;;;;;2.00;2.00;;;;;20.40;65.02;100683.34;5020436;28;45296;-91
2021/08/26 10:25:47;;;;;;;;;1.00;1.00;;;;;20.56;64.91;100688.97;5020319;28;45299;-92
2021/08/26 10:28:15;;;;;;;;;1.00;1.00;;;;;20.69;64.79;100680.56;5018684;28;46479;-91
2021/08/26 10:30:43;;;;;;;;;1.50;1.00;;;;;20.77;64.04;100683.38;5020302;28;45494;-90
2021/08/26 10:33:15;;;;;;;;;0.00;0.00;;;;;20.82;63.93;100686.50;5020092;28;45325;-90
2021/08/26 10:35:50;;;;;;;;;0.00;0.00;;;;;20.88;63.51;100673.38;5019897;28;45202;-90
2021/08/26 10:38:41;;;;;;;;;0.75;0.75;;;;;21.00;63.82;100683.00;5019143;28;45891;-91
2021/08/26 10:41:19;;;;;;;;;1.00;1.00;;;;;21.19;63.41;100674.78;5016917;28;45700;-90
2021/08/26 10:43:54;;;;;;;;;0.50;0.50;;;;;21.41;62.22;100674.53;5026070;28;45192;-90
2021/08/26 10:46:53;;;;;;;;;0.75;0.75;;;;;21.69;61.11;100670.78;5026799;28;45227;-92
2021/08/26 10:49:19;;;;;;;;;0.25;0.25;;;;;21.92;60.94;100677.56;5021804;28;45194;-92
2021/08/26 10:51:47;;;;;;;;;1.00;0.00;;;;;22.06;60.07;100672.44;5019411;28;45243;-92
2021/08/26 10:54:24;;;;;;;;;1.00;1.00;;;;;22.11;59.60;100677.38;5019456;28;45227;-90
2021/08/26 10:56:49;;;;;;;;;0.75;0.75;;;;;22.12;59.39;100679.09;5019153;28;45279;-91
2021/08/26 10:59:29;;;;;;;;;1.00;1.00;;;;;22.15;59.12;100673.38;5018896;28;46148;-91
2021/08/26 11:01:55;;;;;;;;;0.25;0.25;;;;;22.20;59.22;100672.88;5019209;28;45353;-90
2021/08/26 11:04:37;;;;;;;;;1.00;0.00;;;;;22.23;59.12;100669.84;5019215;28;45299;-91
2021/08/26 11:07:04;;;;;;;;;2.00;0.25;;;;;22.29;59.22;100685.50;5019537;28;45211;-92
2021/08/26 11:09:32;;;;;;;;;1.00;1.00;;;;;22.30;57.94;100667.38;5018970;28;46398;-91
2021/08/26 11:12:03;;;;;;;;;0.00;0.00;;;;;22.39;57.96;100680.00;5019499;28;45250;-92
2021/08/26 11:14:31;;;;;;;;;0.00;0.00;;;;;22.37;57.77;100680.13;5018019;28;45414;-91
2021/08/26 11:17:04;;;;;;;;;1.00;0.00;;;;;22.36;57.16;100675.75;5019785;28;45172;-92
2021/08/26 11:19:34;;;;;;;;;0.00;0.00;;;;;22.44;57.28;100679.53;5019265;28;46631;-92
2021/08/26 11:22:02;;;;;;;;;0.25;0.25;;;;;22.55;57.56;100684.66;5019633;28;45483;-92
2021/08/26 11:24:28;;;;;;;;;2.00;0.00;;;;;22.64;56.99;100686.41;5019536;28;45202;-91
2021/08/26 11:27:22;;;;;;;;;0.00;0.00;;;;;22.75;56.99;100677.16;5019707;28;45405;-91